Time;durP1;ratioP1;P1;durP2;ratioP2;P2;SDS_P1;SDS_P2;PMS_P1;PMS_P2;Temp;Humidity;BMP_temperature;BMP_pressure;BME280_temperature;BME280_humidity;BME280_pressure;Samples;Min_cycle;Max_cycle;Signal;HPM_P1;HPM_P2
2023/01/09 00:02:07;;;;;;;2.08;0.50;;;;;;;6.03;100.00;98413.41;5053395;28;20032;-68
2023/01/09 00:04:33;;;;;;;2.30;0.80;;;;;;;6.22;100.00;98441.75;5056800;28;20037;-68
2023/01/09 00:06:58;;;;;;;3.38;0.68;;;;;;;6.23;100.00;98444.25;5044837;28;20399;-67
2023/01/09 00:09:24;;;;;;;2.28;0.88;;;;;;;6.07;100.00;98433.13;5042877;28;20578;-68
2023/01/09 00:11:50;;;;;;;2.85;0.82;;;;;;;6.05;100.00;98441.03;5048339;28;20072;-67
2023/01/09 00:14:16;;;;;;;3.30;1.02;;;;;;;6.08;100.00;98451.28;5051480;28;20041;-68
2023/01/09 00:16:42;;;;;;;1.58;0.75;;;;;;;6.01;100.00;98441.34;5052192;28;20025;-68
2023/01/09 00:19:07;;;;;;;4.38;0.75;;;;;;;6.01;100.00;98447.41;5052054;28;20494;-68
2023/01/09 00:21:33;;;;;;;2.15;0.88;;;;;;;5.99;100.00;98445.81;5051703;28;20431;-67
2023/01/09 00:23:58;;;;;;;1.92;0.68;;;;;;;5.89;100.00;98424.69;5051703;28;20380;-68
2023/01/09 00:26:23;;;;;;;2.75;0.70;;;;;;;5.84;100.00;98421.53;5051079;28;20115;-67
2023/01/09 00:28:50;;;;;;;7.13;0.98;;;;;;;5.98;100.00;98449.38;5051854;28;20095;-67
2023/01/09 00:31:16;;;;;;;1.95;0.90;;;;;;;5.90;100.00;98442.03;5051571;28;20028;-68
2023/01/09 00:33:44;;;;;;;2.25;1.05;;;;;;;5.76;100.00;98431.59;5042526;28;20443;-67
2023/01/09 00:36:10;;;;;;;4.30;1.20;;;;;;;5.81;100.00;98458.22;5018012;28;20039;-67
2023/01/09 00:38:36;;;;;;;2.70;1.23;;;;;;;5.81;100.00;98468.63;5052055;28;20367;-67
2023/01/09 00:41:03;;;;;;;3.13;1.00;;;;;;;5.71;100.00;98451.91;5033739;28;20043;-67
2023/01/09 00:43:32;;;;;;;2.50;1.13;;;;;;;5.78;100.00;98466.19;5033625;28;20037;-67
2023/01/09 00:45:59;;;;;;;4.88;1.25;;;;;;;5.44;100.00;98401.50;5051611;28;20021;-67
2023/01/09 00:48:26;;;;;;;2.20;0.85;;;;;;;5.77;100.00;98456.72;5051722;28;20033;-68
2023/01/09 00:50:57;;;;;;;4.80;1.20;;;;;;;5.68;100.00;98446.84;5049724;28;20025;-67
2023/01/09 00:53:26;;;;;;;3.92;1.05;;;;;;;5.67;100.00;98455.63;5019229;28;20025;-67
2023/01/09 00:55:52;;;;;;;4.35;0.80;;;;;;;5.60;100.00;98454.31;5069572;28;20033;-67
2023/01/09 00:58:17;;;;;;;2.63;1.00;;;;;;;5.54;100.00;98452.09;5051398;28;20032;-68
2023/01/09 01:00:43;;;;;;;1.92;1.00;;;;;;;5.60;100.00;98476.00;5055198;28;20391;-67
2023/01/09 01:03:08;;;;;;;2.75;0.90;;;;;;;5.53;100.00;98468.63;5055113;28;20064;-68
2023/01/09 01:08:18;;;;;;;2.88;1.02;;;;;;;5.56;100.00;98468.44;5016817;28;20047;-67
2023/01/09 01:10:45;;;;;;;2.00;0.73;;;;;;;5.47;100.00;98458.59;5036795;28;20033;-68
2023/01/09 01:13:11;;;;;;;6.35;1.02;;;;;;;5.56;100.00;98471.06;5037079;28;20029;-67
2023/01/09 01:15:38;;;;;;;2.33;0.88;;;;;;;5.49;100.00;98469.75;5054926;28;20028;-67
2023/01/09 01:18:04;;;;;;;2.38;1.05;;;;;;;5.55;100.00;98487.59;5025374;28;20076;-67
2023/01/09 01:20:29;;;;;;;3.38;1.13;;;;;;;5.35;100.00;98454.13;5054743;28;20104;-67
2023/01/09 01:22:54;;;;;;;2.45;0.90;;;;;;;5.56;100.00;98473.66;5054316;28;20108;-67
2023/01/09 01:25:20;;;;;;;3.90;1.38;;;;;;;5.60;100.00;98477.75;5047567;28;20033;-67
2023/01/09 01:27:45;;;;;;;2.88;1.23;;;;;;;5.55;100.00;98474.56;5054225;28;20172;-67
2023/01/09 01:30:13;;;;;;;3.90;1.40;;;;;;;5.49;100.00;98457.56;5036722;28;20032;-67
2023/01/09 01:32:39;;;;;;;3.40;1.50;;;;;;;5.39;100.00;98450.41;5036214;28;20033;-67
2023/01/09 01:35:05;;;;;;;3.95;1.77;;;;;;;5.50;100.00;98479.25;5054747;28;20025;-67
2023/01/09 01:37:32;;;;;;;5.85;2.30;;;;;;;5.42;100.00;98473.66;5054143;28;20025;-67
2023/01/09 01:39:58;;;;;;;4.70;1.60;;;;;;;5.48;100.00;98486.28;5054440;28;20025;-67
2023/01/09 01:42:23;;;;;;;2.90;1.20;;;;;;;5.53;100.00;98494.69;5053507;28;20167;-67
2023/01/09 01:44:53;;;;;;;5.95;1.85;;;;;;;5.66;100.00;98500.81;5028618;28;20095;-67
2023/01/09 01:47:19;;;;;;;5.45;1.25;;;;;;;5.67;100.00;98497.28;5050577;28;20437;-67
2023/01/09 01:49:45;;;;;;;6.85;1.50;;;;;;;5.23;100.00;98436.63;5036216;28;20029;-67
2023/01/09 01:52:11;;;;;;;4.30;1.67;;;;;;;5.75;100.00;98515.88;5054225;28;20024;-67
2023/01/09 01:54:36;;;;;;;4.10;1.38;;;;;;;5.74;100.00;98509.03;5035592;28;20533;-67
2023/01/09 01:57:03;;;;;;;5.93;1.08;;;;;;;5.65;100.00;98513.00;5052613;28;20071;-67
2023/01/09 01:59:50;;;;;;;2.67;1.20;;;;;;;5.66;100.00;98525.13;5053432;28;20060;-67
2023/01/09 02:02:21;;;;;;;3.78;1.60;;;;;;;5.66;100.00;98530.31;5036093;28;20060;-67
2023/01/09 02:04:47;;;;;;;8.40;1.83;;;;;;;5.67;100.00;98523.34;5054186;28;20025;-67
2023/01/09 02:07:13;;;;;;;4.07;1.98;;;;;;;5.54;100.00;98501.56;5036178;28;20025;-67
2023/01/09 02:09:39;;;;;;;3.90;1.63;;;;;;;5.50;100.00;98510.50;5023285;28;20036;-67
2023/01/09 02:12:24;;;;;;;3.80;1.70;;;;;;;5.61;100.00;98528.94;5035946;28;20423;-67
2023/01/09 02:14:52;;;;;;;4.78;1.85;;;;;;;5.57;100.00;98537.84;5053186;28;20039;-67
2023/01/09 02:17:36;;;;;;;10.27;2.10;;;;;;;5.50;100.00;98526.13;5053827;28;20079;-67
2023/01/09 02:20:29;;;;;;;5.22;1.70;;;;;;;5.46;100.00;98524.63;5053123;28;20364;-67
2023/01/09 02:23:27;;;;;;;5.03;2.35;;;;;;;5.40;100.00;98525.00;5053228;28;20171;-67
2023/01/09 02:26:02;;;;;;;7.00;2.00;;;;;;;5.32;100.00;98524.59;5053069;28;20127;-67
2023/01/09 02:28:30;;;;;;;6.13;2.03;;;;;;;5.25;100.00;98528.50;5024213;28;20435;-67
2023/01/09 02:31:00;;;;;;;4.65;1.85;;;;;;;5.23;100.00;98523.41;5052624;28;20364;-67
2023/01/09 02:33:52;;;;;;;9.65;2.08;;;;;;;5.22;100.00;98524.31;5018471;28;20041;-67
2023/01/09 02:36:30;;;;;;;7.95;1.67;;;;;;;5.18;100.00;98527.16;5041947;28;20372;-67
2023/01/09 02:39:15;;;;;;;4.15;1.85;;;;;;;5.13;100.00;98523.09;5035599;28;20033;-67
2023/01/09 02:41:59;;;;;;;3.58;1.65;;;;;;;5.11;100.00;98513.69;5043020;28;20040;-67
2023/01/09 02:44:27;;;;;;;5.80;2.00;;;;;;;5.01;100.00;98513.38;5053318;28;20047;-67
2023/01/09 02:47:22;;;;;;;3.97;1.52;;;;;;;4.97;100.00;98526.66;5035007;28;20055;-66
2023/01/09 02:49:53;;;;;;;6.57;1.75;;;;;;;4.86;100.00;98514.28;5025335;28;20091;-66
2023/01/09 02:52:47;;;;;;;5.82;2.03;;;;;;;4.75;100.00;98521.84;5052756;28;20040;-66
2023/01/09 02:55:13;;;;;;;5.28;2.03;;;;;;;4.72;100.00;98527.22;5035181;28;20041;-67
2023/01/09 02:58:06;;;;;;;9.30;1.90;;;;;;;4.66;100.00;98535.38;5052753;28;20071;-67
2023/01/09 03:00:40;;;;;;;7.82;2.40;;;;;;;4.62;100.00;98524.31;5052833;28;20432;-67
2023/01/09 03:03:15;;;;;;;3.10;1.50;;;;;;;4.51;100.00;98500.66;5052585;28;20040;-67
2023/01/09 03:06:03;;;;;;;9.27;2.38;;;;;;;4.64;100.00;98519.84;5033692;28;20036;-67
2023/01/09 03:09:02;;;;;;;6.80;2.20;;;;;;;4.52;100.00;98506.72;5037361;28;20033;-66
2023/01/09 03:11:32;;;;;;;6.32;2.10;;;;;;;4.51;100.00;98510.22;5017576;28;20082;-67
2023/01/09 03:14:02;;;;;;;6.25;1.77;;;;;;;4.31;100.00;98489.69;5052105;28;20159;-67
2023/01/09 03:16:31;;;;;;;11.27;1.98;;;;;;;4.43;100.00;98512.41;5051035;28;20479;-67
2023/01/09 03:18:57;;;;;;;4.28;1.50;;;;;;;4.29;100.00;98494.16;5034751;28;20043;-67
2023/01/09 03:21:23;;;;;;;6.90;1.60;;;;;;;4.36;100.00;98513.69;5034531;28;20103;-66
2023/01/09 03:23:49;;;;;;;3.03;1.27;;;;;;;4.36;100.00;98518.91;5052656;28;20100;-67
2023/01/09 03:26:15;;;;;;;8.18;1.95;;;;;;;4.27;100.00;98506.38;5052560;28;20493;-66
2023/01/09 03:28:41;;;;;;;4.88;1.52;;;;;;;4.34;100.00;98512.91;5052768;28;20107;-67
2023/01/09 03:31:06;;;;;;;7.90;1.65;;;;;;;4.26;100.00;98502.94;5052445;28;20021;-67
2023/01/09 03:33:31;;;;;;;5.78;1.58;;;;;;;4.39;100.00;98508.31;5052379;28;20021;-67
2023/01/09 03:35:57;;;;;;;8.65;1.83;;;;;;;4.57;100.00;98525.47;5052620;28;20025;-66
2023/01/09 03:38:22;;;;;;;6.32;1.83;;;;;;;4.64;100.00;98524.22;5052175;28;20379;-66
2023/01/09 03:40:48;;;;;;;4.65;2.03;;;;;;;4.74;100.00;98525.38;5051969;28;20100;-67
2023/01/09 03:43:13;;;;;;;3.88;1.52;;;;;;;4.63;100.00;98506.91;5052495;28;20052;-67
2023/01/09 03:45:38;;;;;;;5.93;1.95;;;;;;;4.69;100.00;98500.56;5051755;28;20036;-66
2023/01/09 03:48:04;;;;;;;4.43;1.80;;;;;;;4.91;100.00;98532.22;5049028;28;20029;-67
2023/01/09 03:50:29;;;;;;;15.50;1.95;;;;;;;4.96;100.00;98525.84;5052138;28;20514;-66
2023/01/09 03:52:55;;;;;;;6.43;1.83;;;;;;;4.82;100.00;98496.31;5051983;28;20052;-66
2023/01/09 03:55:20;;;;;;;4.93;1.38;;;;;;;5.00;100.00;98522.09;5052118;28;20032;-66
2023/01/09 03:57:46;;;;;;;4.50;1.90;;;;;;;5.13;100.00;98541.31;5051951;28;20357;-66
2023/01/09 04:00:12;;;;;;;4.38;1.88;;;;;;;5.07;100.00;98520.81;5051643;28;20025;-66
2023/01/09 04:02:37;;;;;;;6.38;1.80;;;;;;;5.27;100.00;98535.31;5050621;28;20035;-67
2023/01/09 04:05:03;;;;;;;6.35;2.22;;;;;;;5.25;100.00;98520.69;5051760;28;20025;-66
2023/01/09 04:07:28;;;;;;;5.68;1.75;;;;;;;5.29;100.00;98525.63;5033776;28;20021;-67
2023/01/09 04:09:54;;;;;;;5.00;1.80;;;;;;;5.37;100.00;98540.81;5052448;28;20036;-67
2023/01/09 04:12:19;;;;;;;6.78;1.85;;;;;;;5.42;100.00;98541.34;5051818;28;20173;-66
2023/01/09 04:14:44;;;;;;;8.90;2.13;;;;;;;5.43;100.00;98541.28;5041628;28;20044;-66
2023/01/09 04:17:10;;;;;;;8.23;1.98;;;;;;;5.43;100.00;98535.22;5051732;28;20036;-66
2023/01/09 04:19:35;;;;;;;7.55;1.88;;;;;;;5.53;100.00;98541.56;5051048;28;20474;-66
2023/01/09 04:22:01;;;;;;;6.35;2.08;;;;;;;5.47;100.00;98536.72;5051483;28;20112;-67
2023/01/09 04:24:27;;;;;;;6.70;2.00;;;;;;;5.46;100.00;98522.03;5051824;28;20052;-66
2023/01/09 04:26:52;;;;;;;6.20;1.85;;;;;;;5.50;100.00;98526.97;5051656;28;20135;-66
2023/01/09 04:29:18;;;;;;;5.50;1.92;;;;;;;5.57;100.00;98524.84;5055666;28;20159;-66
2023/01/09 04:31:43;;;;;;;4.60;1.67;;;;;;;5.61;100.00;98516.72;5055314;28;20103;-66
2023/01/09 04:34:08;;;;;;;7.40;2.45;;;;;;;5.70;100.00;98519.72;5055541;28;20025;-66
2023/01/09 04:36:35;;;;;;;5.38;1.60;;;;;;;5.71;100.00;98519.63;5055469;28;20547;-66
2023/01/09 04:39:00;;;;;;;8.18;2.00;;;;;;;5.45;100.00;98481.28;5055653;28;20028;-65
2023/01/09 04:44:09;;;;;;;5.07;1.73;;;;;;;5.77;100.00;98518.41;5055379;28;20063;-66
2023/01/09 04:46:35;;;;;;;6.60;2.10;;;;;;;5.51;100.00;98480.91;5055157;28;20479;-66
2023/01/09 04:49:00;;;;;;;6.30;1.40;;;;;;;5.75;100.00;98509.84;5042318;28;20017;-66
2023/01/09 04:51:26;;;;;;;6.50;1.80;;;;;;;5.86;100.00;98517.88;5037772;28;20056;-66
2023/01/09 04:53:51;;;;;;;3.80;1.60;;;;;;;5.89;100.00;98528.94;5043127;28;20434;-66
2023/01/09 04:56:16;;;;;;;6.55;1.60;;;;;;;5.92;100.00;98523.53;5055243;28;20112;-66
2023/01/09 04:58:42;;;;;;;6.10;1.52;;;;;;;5.92;100.00;98514.88;5054972;28;20391;-65
2023/01/09 05:01:07;;;;;;;3.65;1.58;;;;;;;5.87;100.00;98509.97;5055180;28;20468;-66
2023/01/09 05:03:32;;;;;;;3.95;1.67;;;;;;;5.96;100.00;98527.66;5054255;28;20060;-66
2023/01/09 05:05:58;;;;;;;4.45;1.95;;;;;;;5.92;100.00;98501.84;5054401;28;20021;-66
2023/01/09 05:08:23;;;;;;;5.70;1.45;;;;;;;5.95;100.00;98507.72;5055014;28;20060;-66
2023/01/09 05:10:49;;;;;;;10.00;2.17;;;;;;;5.97;100.00;98520.66;5070449;28;20040;-66
2023/01/09 05:13:14;;;;;;;5.38;1.52;;;;;;;5.87;100.00;98491.72;5023956;28;20041;-66
2023/01/09 05:15:39;;;;;;;6.85;2.05;;;;;;;6.05;100.00;98515.84;5014048;28;20056;-66
2023/01/09 05:18:05;;;;;;;8.05;2.08;;;;;;;6.01;100.00;98509.97;5054489;28;20033;-66
2023/01/09 05:20:30;;;;;;;8.15;2.38;;;;;;;6.06;100.00;98518.31;5054121;28;20029;-66
2023/01/09 05:22:55;;;;;;;5.38;1.63;;;;;;;6.04;100.00;98521.97;5054688;28;20025;-66
2023/01/09 05:25:21;;;;;;;7.18;2.10;;;;;;;6.09;100.00;98525.94;5054301;28;20029;-66
2023/01/09 05:27:46;;;;;;;8.80;1.73;;;;;;;5.97;100.00;98511.09;5044995;28;20056;-66
2023/01/09 05:30:12;;;;;;;6.65;1.48;;;;;;;6.05;100.00;98524.47;5051189;28;20071;-66
2023/01/09 05:32:38;;;;;;;11.35;2.42;;;;;;;6.07;100.00;98533.03;5054356;28;20594;-65
2023/01/09 05:35:04;;;;;;;11.38;1.67;;;;;;;6.18;100.00;98544.59;5053605;28;20029;-67
2023/01/09 05:37:29;;;;;;;10.40;1.70;;;;;;;6.18;100.00;98541.00;5054129;28;20483;-66
2023/01/09 05:39:54;;;;;;;5.72;1.90;;;;;;;6.17;100.00;98533.31;5053905;28;20028;-66
2023/01/09 05:42:20;;;;;;;8.85;2.28;;;;;;;6.27;100.00;98550.06;5054186;28;20040;-66
2023/01/09 05:44:45;;;;;;;11.88;2.35;;;;;;;6.22;100.00;98528.63;5053748;28;20111;-66
2023/01/09 05:47:11;;;;;;;11.40;3.30;;;;;;;6.30;100.00;98538.59;5052992;28;20479;-66
2023/01/09 05:49:36;;;;;;;5.72;1.88;;;;;;;6.37;100.00;98547.69;5044957;28;20024;-66
2023/01/09 05:52:02;;;;;;;13.50;2.58;;;;;;;5.95;100.00;98473.00;5054317;28;20033;-66
2023/01/09 05:54:27;;;;;;;8.57;2.88;;;;;;;6.31;100.00;98524.63;5054019;28;20067;-66
2023/01/09 05:56:52;;;;;;;8.05;2.30;;;;;;;6.32;100.00;98526.31;5054007;28;20071;-66
2023/01/09 05:59:18;;;;;;;7.25;2.20;;;;;;;6.39;100.00;98536.22;5053939;28;20476;-66
2023/01/09 06:01:44;;;;;;;13.90;2.75;;;;;;;6.36;100.00;98523.38;5053870;28;20033;-66
2023/01/09 06:04:09;;;;;;;18.30;3.13;;;;;;;6.41;100.00;98526.56;5053114;28;20027;-66
2023/01/09 06:06:35;;;;;;;10.52;2.55;;;;;;;6.40;100.00;98524.03;5052141;28;20036;-66
2023/01/09 06:09:02;;;;;;;12.05;2.80;;;;;;;6.36;100.00;98506.91;5032951;28;20021;-66
2023/01/09 06:11:28;;;;;;;7.50;2.35;;;;;;;6.49;100.00;98518.25;5053800;28;20033;-65
2023/01/09 06:13:53;;;;;;;13.98;2.25;;;;;;;6.46;100.00;98500.16;5051223;28;20079;-66
2023/01/09 06:16:18;;;;;;;7.18;2.28;;;;;;;6.58;100.00;98512.44;5049792;28;20028;-66
2023/01/09 06:18:44;;;;;;;5.68;1.77;;;;;;;6.63;100.00;98520.78;5053792;28;20104;-66
2023/01/09 06:21:09;;;;;;;7.57;2.45;;;;;;;6.62;100.00;98503.47;5053877;28;20037;-65
2023/01/09 06:23:35;;;;;;;7.60;1.98;;;;;;;6.59;100.00;98517.53;5052781;28;20043;-66
2023/01/09 06:26:00;;;;;;;6.07;1.98;;;;;;;6.62;100.00;98521.75;5053422;28;20025;-66
2023/01/09 06:28:26;;;;;;;7.40;2.30;;;;;;;6.62;100.00;98516.53;5053289;28;20076;-66
2023/01/09 06:30:51;;;;;;;8.07;2.33;;;;;;;6.65;100.00;98530.22;5053236;28;20029;-66
2023/01/09 06:33:17;;;;;;;10.00;2.22;;;;;;;6.67;100.00;98528.34;5052923;28;20043;-66
2023/01/09 06:35:42;;;;;;;6.07;1.77;;;;;;;6.50;100.00;98515.53;5027173;28;20028;-66
2023/01/09 06:38:07;;;;;;;11.00;2.53;;;;;;;6.69;100.00;98529.06;5047017;28;20071;-65
2023/01/09 06:40:33;;;;;;;12.40;3.20;;;;;;;6.45;100.00;98485.47;5051762;28;20041;-65
2023/01/09 06:42:58;;;;;;;7.82;2.42;;;;;;;6.73;100.00;98521.88;5054125;28;20048;-66
2023/01/09 06:45:24;;;;;;;5.05;1.88;;;;;;;6.68;100.00;98531.78;5048373;28;20123;-66
2023/01/09 06:47:49;;;;;;;6.05;2.15;;;;;;;6.71;100.00;98530.75;5051025;28;20048;-66
2023/01/09 06:50:15;;;;;;;9.70;2.47;;;;;;;6.76;100.00;98550.38;5049548;28;20033;-66
2023/01/09 06:52:40;;;;;;;5.95;2.42;;;;;;;6.77;100.00;98539.00;5050271;28;20484;-66
2023/01/09 06:55:07;;;;;;;7.57;2.08;;;;;;;6.78;100.00;98540.69;5049736;28;20041;-66
2023/01/09 06:57:33;;;;;;;8.02;2.58;;;;;;;6.82;100.00;98550.00;5050087;28;20068;-66
2023/01/09 06:59:58;;;;;;;5.72;2.55;;;;;;;6.72;100.00;98509.78;5053159;28;20064;-65
2023/01/09 07:02:24;;;;;;;6.53;2.58;;;;;;;6.72;100.00;98521.97;5052485;28;20109;-65
2023/01/09 07:04:49;;;;;;;5.38;1.88;;;;;;;6.85;100.00;98546.34;5041892;28;20149;-64
2023/01/09 07:07:15;;;;;;;11.73;3.70;;;;;;;6.81;100.00;98548.31;5053683;28;20047;-66
2023/01/09 07:09:40;;;;;;;11.13;3.03;;;;;;;6.84;100.00;98550.72;5052806;28;20029;-65
2023/01/09 07:12:06;;;;;;;7.97;2.47;;;;;;;6.79;100.00;98542.38;5052735;28;20029;-66
2023/01/09 07:14:31;;;;;;;11.02;2.53;;;;;;;6.82;100.00;98536.13;5052546;28;20023;-65
2023/01/09 07:16:57;;;;;;;7.82;2.80;;;;;;;6.83;100.00;98542.97;5037370;28;20099;-65
2023/01/09 07:19:22;;;;;;;9.20;2.35;;;;;;;6.91;100.00;98562.44;5049230;28;20035;-66
2023/01/09 07:21:48;;;;;;;13.02;3.35;;;;;;;6.87;100.00;98555.75;5052512;28;20427;-66
2023/01/09 07:24:13;;;;;;;8.30;2.67;;;;;;;6.85;100.00;98549.81;5052355;28;20025;-65
2023/01/09 07:26:39;;;;;;;9.23;3.00;;;;;;;6.89;100.00;98564.34;5052021;28;20044;-66
2023/01/09 07:29:04;;;;;;;5.00;2.35;;;;;;;6.78;100.00;98538.09;5052383;28;20479;-65
2023/01/09 07:31:29;;;;;;;7.47;2.13;;;;;;;6.92;100.00;98576.34;5038904;28;20076;-66
2023/01/09 07:33:55;;;;;;;6.63;1.95;;;;;;;6.92;100.00;98574.56;5052190;28;20037;-65
2023/01/09 07:36:20;;;;;;;11.02;2.50;;;;;;;6.90;100.00;98570.38;5052375;28;20051;-65
2023/01/09 07:38:46;;;;;;;7.90;2.05;;;;;;;6.94;100.00;98579.69;5052408;28;20028;-65
2023/01/09 07:41:11;;;;;;;11.90;2.33;;;;;;;6.98;100.00;98591.59;5051810;28;20031;-65
2023/01/09 07:43:37;;;;;;;5.03;2.03;;;;;;;7.02;100.00;98580.88;5052354;28;20463;-65
2023/01/09 07:46:03;;;;;;;6.97;1.98;;;;;;;7.04;100.00;98602.50;5051250;28;20025;-64
2023/01/09 07:48:29;;;;;;;10.68;1.75;;;;;;;6.95;100.00;98584.81;5051128;28;20021;-65
2023/01/09 07:50:54;;;;;;;8.65;1.60;;;;;;;6.97;100.00;98589.94;5051208;28;20456;-65
2023/01/09 07:53:19;;;;;;;5.10;2.00;;;;;;;7.02;100.00;98596.53;5052211;28;20112;-65
2023/01/09 07:55:45;;;;;;;7.68;1.95;;;;;;;6.89;100.00;98594.81;5050587;28;20037;-66
2023/01/09 07:58:10;;;;;;;7.22;1.52;;;;;;;6.91;100.00;98593.78;5042630;28;20032;-65
2023/01/09 08:00:36;;;;;;;11.93;2.40;;;;;;;6.51;100.00;98527.66;5051855;28;20036;-65
2023/01/09 08:03:01;;;;;;;10.05;2.35;;;;;;;7.00;100.00;98601.00;5055017;28;20029;-66
2023/01/09 08:05:26;;;;;;;6.20;2.13;;;;;;;7.03;100.00;98613.88;5054376;28;20039;-65
2023/01/09 08:07:52;;;;;;;4.72;1.80;;;;;;;6.87;100.00;98594.91;5055348;28;20040;-66
2023/01/09 08:10:18;;;;;;;13.07;2.67;;;;;;;7.06;100.00;98629.34;5037233;28;20542;-66
2023/01/09 08:12:47;;;;;;;11.57;2.58;;;;;;;6.89;100.00;98584.38;5055381;28;20037;-65
2023/01/09 08:15:13;;;;;;;8.38;4.00;;;;;;;7.15;100.00;98628.75;5055090;28;20040;-65
2023/01/09 08:17:40;;;;;;;9.98;2.72;;;;;;;7.20;100.00;98637.13;5032722;28;20065;-66
2023/01/09 08:20:05;;;;;;;8.95;2.55;;;;;;;7.19;100.00;98632.84;5031691;28;20048;-66
2023/01/09 08:22:31;;;;;;;4.50;1.55;;;;;;;7.25;100.00;98633.38;5037963;28;20029;-65
2023/01/09 08:24:56;;;;;;;7.78;2.28;;;;;;;7.30;100.00;98639.16;5055650;28;20521;-65
2023/01/09 08:27:21;;;;;;;5.20;1.60;;;;;;;7.34;100.00;98643.22;5055687;28;20057;-65
2023/01/09 08:29:47;;;;;;;11.50;2.83;;;;;;;7.20;100.00;98631.91;5051179;28;20111;-65
2023/01/09 08:32:12;;;;;;;9.50;2.53;;;;;;;7.33;100.00;98652.00;5055090;28;20108;-65
2023/01/09 08:34:37;;;;;;;14.63;3.17;;;;;;;7.30;100.00;98650.41;5054945;28;20447;-66
2023/01/09 08:37:03;;;;;;;14.30;3.28;;;;;;;7.31;100.00;98661.72;5055225;28;20025;-65
2023/01/09 08:39:28;;;;;;;13.43;2.67;;;;;;;7.29;100.00;98654.00;5055438;28;20052;-65
2023/01/09 08:47:22;;;;;;;5.10;1.97;;;;;;;7.31;100.00;98686.06;5042289;28;20087;-64
2023/01/09 08:49:48;;;;;;;5.38;2.05;;;;;;;7.22;100.00;98675.38;5054612;28;20275;-65
2023/01/09 08:52:13;;;;;;;10.30;2.53;;;;;;;7.26;100.00;98687.31;5054876;28;20027;-66
2023/01/09 08:54:39;;;;;;;5.10;1.88;;;;;;;7.24;100.00;98689.16;5055078;28;20021;-65
2023/01/09 08:57:05;;;;;;;9.85;2.38;;;;;;;7.25;100.00;98696.06;5054961;28;20029;-65
2023/01/09 08:59:30;;;;;;;7.55;2.25;;;;;;;7.29;100.00;98703.63;5055249;28;20116;-65
2023/01/09 09:01:57;;;;;;;5.00;1.88;;;;;;;7.21;100.00;98716.31;5055086;28;20028;-65
2023/01/09 09:04:22;;;;;;;6.05;2.25;;;;;;;7.28;100.00;98711.53;5054887;28;20025;-65
2023/01/09 09:06:48;;;;;;;4.57;1.95;;;;;;;7.36;100.00;98714.50;5054763;28;20025;-65
2023/01/09 09:09:13;;;;;;;9.85;2.47;;;;;;;7.42;100.00;98717.56;5030808;28;20017;-65
2023/01/09 09:11:39;;;;;;;5.95;1.92;;;;;;;7.37;100.00;98706.56;5045106;28;20665;-66
2023/01/09 09:15:11;;;;;;;7.95;2.08;;;;;;;7.52;100.00;98725.66;5053569;28;20260;-65
2023/01/09 09:16:49;;;;;;;5.13;2.10;;;;;;;7.67;100.00;98730.72;5053858;28;20045;-65
2023/01/09 09:19:15;;;;;;;7.45;1.92;;;;;;;7.77;100.00;98714.44;5054711;28;20456;-65
2023/01/09 09:21:40;;;;;;;9.05;1.85;;;;;;;7.73;100.00;98692.91;5054165;28;20028;-65
2023/01/09 09:24:06;;;;;;;6.18;1.83;;;;;;;7.97;100.00;98732.25;5054663;28;20092;-65
2023/01/09 09:26:31;;;;;;;4.47;1.40;;;;;;;7.93;100.00;98731.63;5052572;28;20091;-65
2023/01/09 09:28:57;;;;;;;3.00;1.38;;;;;;;7.90;100.00;98750.16;5054135;28;20104;-65
2023/01/09 09:31:23;;;;;;;5.45;2.30;;;;;;;7.82;100.00;98734.09;5054416;28;20100;-66
2023/01/09 09:33:48;;;;;;;10.15;2.55;;;;;;;7.82;100.00;98755.03;5053288;28;20040;-65
2023/01/09 09:36:14;;;;;;;5.03;2.15;;;;;;;7.72;100.00;98764.41;5013138;28;20025;-64
2023/01/09 09:38:39;;;;;;;5.80;2.28;;;;;;;7.68;100.00;98766.38;5006843;28;20151;-65
2023/01/09 09:44:57;;;;;;;7.75;1.80;;;;;;;7.61;100.00;98790.38;4989836;28;20150;-65
2023/01/09 09:47:50;;;;;;;4.55;1.80;;;;;;;7.60;100.00;98801.81;4987691;28;20021;-66
2023/01/09 09:50:35;;;;;;;8.50;2.67;;;;;;;7.60;100.00;98807.03;5022279;28;20095;-66
2023/01/09 09:53:21;;;;;;;5.07;1.92;;;;;;;7.59;100.00;98805.34;5002151;28;20129;-65
2023/01/09 09:55:48;;;;;;;9.70;2.42;;;;;;;7.59;100.00;98806.19;5007077;28;20111;-64
2023/01/09 09:58:21;;;;;;;8.63;2.10;;;;;;;7.61;100.00;98819.13;4989828;28;20283;-64
2023/01/09 10:00:50;;;;;;;3.35;1.40;;;;;;;7.30;100.00;98781.03;5007235;28;20027;-64
2023/01/09 10:03:50;;;;;;;5.03;1.67;;;;;;;7.48;100.00;98803.41;5007243;28;20032;-65
2023/01/09 10:06:19;;;;;;;6.32;2.10;;;;;;;7.60;100.00;98828.75;5016454;28;20044;-64
2023/01/09 10:08:57;;;;;;;4.38;1.90;;;;;;;7.56;100.00;98821.22;5052035;28;20116;-66
2023/01/09 10:11:33;;;;;;;5.03;1.80;;;;;;;7.48;100.00;98808.63;5024987;28;20432;-65
2023/01/09 10:14:04;;;;;;;5.43;1.45;;;;;;;7.60;100.00;98823.53;5029886;28;20052;-64
2023/01/09 10:17:24;;;;;;;4.20;1.17;;;;;;;7.66;100.00;98838.84;5050438;28;20064;-65
2023/01/09 10:19:52;;;;;;;4.35;1.08;;;;;;;7.61;100.00;98845.28;4953821;28;20054;-66
2023/01/09 10:22:35;;;;;;;5.88;1.17;;;;;;;7.57;100.00;98851.66;5035500;28;20060;-66
2023/01/09 10:25:19;;;;;;;3.63;1.23;;;;;;;7.56;100.00;98852.59;5049363;28;20100;-66
2023/01/09 10:28:04;;;;;;;4.18;1.33;;;;;;;7.49;100.00;98843.44;5052178;28;20471;-65
2023/01/09 10:30:52;;;;;;;2.60;0.85;;;;;;;7.35;100.00;98839.06;5034504;28;20029;-65
2023/01/09 10:33:36;;;;;;;2.65;1.00;;;;;;;7.44;100.00;98858.56;5033361;28;20116;-65
2023/01/09 10:36:20;;;;;;;4.45;0.90;;;;;;;7.39;100.00;98858.00;5052144;28;20036;-65
2023/01/09 10:38:48;;;;;;;1.85;0.77;;;;;;;7.20;100.00;98830.41;5034644;28;20041;-65
2023/01/09 10:41:20;;;;;;;3.05;1.58;;;;;;;7.34;100.00;98857.44;5034443;28;20368;-65
2023/01/09 10:43:58;;;;;;;4.70;1.20;;;;;;;7.33;100.00;98876.69;5051856;28;21373;-66
2023/01/09 10:46:32;;;;;;;2.20;0.88;;;;;;;7.27;100.00;98871.81;5032799;28;20128;-65
2023/01/09 10:48:58;;;;;;;;;;;;;;;7.33;100.00;98876.69;5051385;28;20139;-65
2023/01/09 10:51:45;;;;;;;3.83;0.80;;;;;;;7.36;100.00;98881.72;5067473;28;19917;-65
2023/01/09 10:54:20;;;;;;;1.40;0.63;;;;;;;7.37;100.00;98899.09;5049142;28;20036;-66
2023/01/09 10:56:57;;;;;;;3.72;1.17;;;;;;;7.32;100.00;98885.44;5052290;28;20033;-66
2023/01/09 10:59:23;;;;;;;6.63;0.60;;;;;;;7.29;100.00;98883.03;5026379;28;20070;-66
2023/01/09 11:01:48;;;;;;;2.55;0.63;;;;;;;7.40;100.00;98904.13;5051353;28;20041;-65
2023/01/09 11:04:20;;;;;;;2.42;0.60;;;;;;;7.35;100.00;98906.16;5051430;28;20476;-65
2023/01/09 11:06:49;;;;;;;3.20;1.05;;;;;;;7.18;100.00;98889.75;5035417;28;20036;-66
2023/01/09 11:09:15;;;;;;;2.58;0.65;;;;;;;7.30;100.00;98913.44;5034272;28;20418;-66
2023/01/09 11:11:41;;;;;;;2.35;0.88;;;;;;;7.26;100.00;98911.94;5034040;28;20033;-65
2023/01/09 11:14:17;;;;;;;2.20;0.70;;;;;;;7.25;100.00;98910.25;5052382;28;20115;-66
2023/01/09 11:17:00;;;;;;;2.00;0.60;;;;;;;7.20;100.00;98907.91;5035361;28;20710;-66
2023/01/09 11:19:26;;;;;;;3.53;1.05;;;;;;;7.19;100.00;98896.66;5029281;28;20039;-66
2023/01/09 11:22:18;;;;;;;3.67;0.80;;;;;;;7.30;100.00;98910.84;5033392;28;20039;-66
2023/01/09 11:24:44;;;;;;;2.55;0.88;;;;;;;7.12;100.00;98874.44;5040718;28;20037;-66
2023/01/09 11:27:12;;;;;;;4.18;0.85;;;;;;;7.31;100.00;98904.66;5050985;28;20471;-66
2023/01/09 11:29:38;;;;;;;3.75;0.80;;;;;;;7.22;100.00;98905.22;5051844;28;20051;-65
2023/01/09 11:32:04;;;;;;;3.30;0.98;;;;;;;7.02;100.00;98893.38;5044282;28;20048;-65
2023/01/09 11:34:31;;;;;;;1.92;0.82;;;;;;;7.05;100.00;98903.63;5051775;28;20064;-66
2023/01/09 11:37:08;;;;;;;1.85;0.75;;;;;;;7.30;100.00;98910.84;5060248;28;20021;-66
2023/01/09 11:39:38;;;;;;;2.10;0.82;;;;;;;7.39;100.00;98933.78;5033522;28;20494;-66
2023/01/09 11:42:05;;;;;;;2.30;0.68;;;;;;;7.35;100.00;98919.22;5059056;28;20095;-65
2023/01/09 11:44:31;;;;;;;2.13;0.82;;;;;;;7.38;100.00;98919.03;5033973;28;20534;-66
2023/01/09 11:46:57;;;;;;;2.70;0.68;;;;;;;7.38;100.00;98932.94;5035334;28;20033;-65
2023/01/09 11:49:30;;;;;;;2.05;0.82;;;;;;;7.33;100.00;98935.00;5032180;28;20079;-65
2023/01/09 11:52:14;;;;;;;1.60;0.75;;;;;;;7.39;100.00;98939.00;5061180;28;20452;-65
2023/01/09 11:54:51;;;;;;;3.15;1.02;;;;;;;7.49;100.00;98904.38;5049174;28;20048;-66